F/V Pedro Jose Berri — EDYX — position and weather

sailwx.info

Track history (hours):
 
Tides and Currents Weather Stations Pressure Air Temp Water Temp Dewpoint Dewpoint Depression Visibility Wind Speed Wind Dir Waves Ship Positions

F/V Pedro Jose Berri

Last reported at 2017-Nov-16 17:52 UTC. Time now 2017-Nov-20 00:11 UTC.
Position N 43°18' W 002°12'.

Length 34 m.

Type: Fishing. MMSI: 224052460.

Date/timePositionNaut miles runAvg speedWind from/ knotsBaromVisibWave heightAir tempDewpointWater temp
2017-Nov-16 17:52N 43°18' W 002°12'0 0.0
2017-Nov-16 14:34N 43°18' W 002°12'0 1.0
2017-Nov-16 14:29N 43°18' W 002°12'0 0.2
2017-Nov-16 14:00N 43°18' W 002°12'0 0.0
2017-Nov-16 13:30N 43°18' W 002°12'4 8.5
2017-Nov-16 13:00N 43°22' W 002°09'510.6
2017-Nov-16 12:30N 43°26' W 002°05'510.6
2017-Nov-16 12:00N 43°31' W 002°01'510.5
2017-Nov-16 11:30N 43°35' W 001°57'510.3
2017-Nov-16 11:00N 43°39' W 001°53'510.6
2017-Nov-16 10:30N 43°44' W 001°49'510.6
2017-Nov-16 10:00N 43°48' W 001°45'510.2
2017-Nov-16 09:30N 43°52' W 001°40'510.1
2017-Nov-16 09:00N 43°57' W 001°37'510.2
2017-Nov-16 08:30N 44°01' W 001°33'5 9.6
2017-Nov-16 08:00N 44°05' W 001°30'0 0.2
2017-Nov-16 07:30N 44°05' W 001°30'0 0.4
2017-Nov-16 07:00N 44°05' W 001°30'2 3.4
2017-Nov-16 06:30N 44°07' W 001°29'0 0.2
2017-Nov-16 06:00N 44°07' W 001°29'0 0.5
2017-Nov-16 05:30N 44°07' W 001°29'1 1.9
2017-Nov-16 05:00N 44°07' W 001°30'2 4.6
2017-Nov-16 04:30N 44°09' W 001°29'1 1.7
2017-Nov-16 04:00N 44°10' W 001°30'0 0.6
2017-Nov-16 03:30N 44°10' W 001°29'0 0.4
2017-Nov-16 03:00N 44°10' W 001°29'2 4.0
2017-Nov-16 02:30N 44°08' W 001°29'3 6.5
2017-Nov-16 02:00N 44°07' W 001°32'0 0.3
2017-Nov-16 01:11N 44°07' W 001°32'0 0.2
2017-Nov-16 01:00N 44°07' W 001°32'0 0.0
2017-Nov-16 00:30N 44°07' W 001°32'0 0.3
2017-Nov-16 00:00N 44°07' W 001°32'0 0.2
2017-Nov-15 23:30N 44°07' W 001°32'3 1.9
2017-Nov-15 21:57N 44°08' W 001°36'4 9.9
2017-Nov-15 21:30N 44°07' W 001°42'8 8.3
2017-Nov-15 20:30N 43°59' W 001°42'510.0
2017-Nov-15 20:00N 43°54' W 001°45'5 9.6
2017-Nov-15 19:30N 43°50' W 001°49'5 9.6
2017-Nov-15 19:00N 43°46' W 001°52'5 9.3
2017-Nov-15 18:30N 43°42' W 001°56'0 0.2
2017-Nov-15 18:00N 43°42' W 001°56'4 8.9
2017-Nov-15 17:30N 43°38' W 001°58'5 9.9
2017-Nov-15 17:00N 43°34' W 002°02'5 9.8
2017-Nov-15 16:30N 43°30' W 002°05'5 9.7
2017-Nov-15 16:00N 43°25' W 002°08'510.0
2017-Nov-15 15:30N 43°21' W 002°10'3 5.2
2017-Nov-15 15:00N 43°18' W 002°12'0 0.0
2017-Nov-15 14:27N 43°18' W 002°12'0 0.0
2017-Nov-15 14:00N 43°18' W 002°12'0 0.0
2017-Nov-15 13:30N 43°18' W 002°12'4 9.0
2017-Nov-15 13:00N 43°22' W 002°08'510.5
2017-Nov-15 12:30N 43°26' W 002°04'510.6
2017-Nov-15 12:00N 43°31' W 002°01'510.3
2017-Nov-15 11:30N 43°35' W 001°57'510.2
2017-Nov-15 11:00N 43°40' W 001°54'510.2
2017-Nov-15 10:30N 43°44' W 001°51'510.4
2017-Nov-15 10:00N 43°49' W 001°47'510.3
2017-Nov-15 09:30N 43°54' W 001°44'610.2
2017-Nov-15 08:56N 43°59' W 001°40'410.0
2017-Nov-15 08:29N 44°03' W 001°37'510.0
2017-Nov-15 07:59N 44°07' W 001°34'5 3.3
2017-Nov-15 06:32N 44°11' W 001°30'0 0.3
2017-Nov-15 06:30N 44°11' W 001°30'4 1.1
2017-Nov-15 02:49N 44°15' W 001°30'0 0.4
2017-Nov-15 02:22N 44°15' W 001°30'0 0.4
2017-Nov-15 01:58N 44°15' W 001°29'1 0.4
2017-Nov-15 00:41N 44°16' W 001°29'0 0.4
2017-Nov-15 00:30N 44°16' W 001°29'0 0.5
2017-Nov-14 23:50N 44°16' W 001°29'1 4.2
2017-Nov-14 23:30N 44°16' W 001°31'1 2.6
2017-Nov-14 22:58N 44°17' W 001°30'21 3.0
2017-Nov-14 16:13N 43°58' W 001°39'2 9.9
2017-Nov-14 15:59N 43°56' W 001°41'5 9.8
2017-Nov-14 15:30N 43°52' W 001°44'5 9.9
2017-Nov-14 15:00N 43°47' W 001°47'5 9.8
2017-Nov-14 14:30N 43°43' W 001°50'5 9.8
2017-Nov-14 14:00N 43°39' W 001°54'5 9.6
2017-Nov-14 13:30N 43°35' W 001°57'5 9.6
2017-Nov-14 13:00N 43°31' W 002°01'5 9.4
2017-Nov-14 12:30N 43°27' W 002°04'5 9.3
2017-Nov-14 12:00N 43°23' W 002°08'5 9.3
2017-Nov-14 11:30N 43°19' W 002°11'1 1.8
2017-Nov-14 11:00N 43°18' W 002°12'0 0.1
2017-Nov-14 10:29N 43°18' W 002°12'  
2017-Nov-07 06:33N 43°18' W 002°12'0 5.3
2017-Nov-07 06:29N 43°18' W 002°12'510.3
2017-Nov-07 06:00N 43°20' W 002°05'510.0
2017-Nov-07 05:30N 43°22' W 001°59'4 7.4
2017-Nov-07 05:01N 43°24' W 001°54'1 2.2
2017-Nov-07 04:30N 43°24' W 001°56'3 6.4
2017-Nov-07 04:00N 43°25' W 001°52'2 4.1
2017-Nov-07 03:30N 43°27' W 001°54'1 3.0
2017-Nov-07 03:00N 43°28' W 001°54'0 0.6
2017-Nov-07 02:30N 43°28' W 001°53'0 0.6
2017-Nov-07 02:00N 43°28' W 001°53'0 0.5
2017-Nov-07 01:30N 43°28' W 001°53'0 0.5
2017-Nov-07 01:00N 43°27' W 001°53'0 0.5
2017-Nov-07 00:30N 43°27' W 001°53'0 1.0
2017-Nov-07 00:00N 43°27' W 001°52'4 8.2
2017-Nov-06 23:30N 43°31' W 001°50'4 8.4
2017-Nov-06 23:00N 43°34' W 001°47'4 8.3
2017-Nov-06 22:31N 43°38' W 001°44'4 8.2
2017-Nov-06 22:00N 43°42' W 001°43'4 8.4
2017-Nov-06 21:30N 43°46' W 001°42'4 8.5
2017-Nov-06 21:00N 43°50' W 001°41'2 2.2
2017-Nov-06 20:08N 43°52' W 001°40'  
Track history (hours):
 
Tides and Currents Weather Stations Pressure Air Temp Water Temp Dewpoint Dewpoint Depression Visibility Wind Speed Wind Dir Waves Ship Positions

F/V Pedro Jose Berri

Last reported at 2017-Nov-16 17:52 UTC. Time now 2017-Nov-20 00:11 UTC.
Position N 43°18' W 002°12'.

Length 34 m.

Type: Fishing. MMSI: 224052460.

Date/timePositionNaut miles runAvg speedWind from/ knotsBaromVisibWave heightAir tempDewpointWater temp
2017-Nov-16 17:52N 43°18' W 002°12'0 0.0
2017-Nov-16 14:34N 43°18' W 002°12'0 1.0
2017-Nov-16 14:29N 43°18' W 002°12'0 0.2
2017-Nov-16 14:00N 43°18' W 002°12'0 0.0
2017-Nov-16 13:30N 43°18' W 002°12'4 8.5
2017-Nov-16 13:00N 43°22' W 002°09'510.6
2017-Nov-16 12:30N 43°26' W 002°05'510.6
2017-Nov-16 12:00N 43°31' W 002°01'510.5
2017-Nov-16 11:30N 43°35' W 001°57'510.3
2017-Nov-16 11:00N 43°39' W 001°53'510.6
2017-Nov-16 10:30N 43°44' W 001°49'510.6
2017-Nov-16 10:00N 43°48' W 001°45'510.2
2017-Nov-16 09:30N 43°52' W 001°40'510.1
2017-Nov-16 09:00N 43°57' W 001°37'510.2
2017-Nov-16 08:30N 44°01' W 001°33'5 9.6
2017-Nov-16 08:00N 44°05' W 001°30'0 0.2
2017-Nov-16 07:30N 44°05' W 001°30'0 0.4
2017-Nov-16 07:00N 44°05' W 001°30'2 3.4
2017-Nov-16 06:30N 44°07' W 001°29'0 0.2
2017-Nov-16 06:00N 44°07' W 001°29'0 0.5
2017-Nov-16 05:30N 44°07' W 001°29'1 1.9
2017-Nov-16 05:00N 44°07' W 001°30'2 4.6
2017-Nov-16 04:30N 44°09' W 001°29'1 1.7
2017-Nov-16 04:00N 44°10' W 001°30'0 0.6
2017-Nov-16 03:30N 44°10' W 001°29'0 0.4
2017-Nov-16 03:00N 44°10' W 001°29'2 4.0
2017-Nov-16 02:30N 44°08' W 001°29'3 6.5
2017-Nov-16 02:00N 44°07' W 001°32'0 0.3
2017-Nov-16 01:11N 44°07' W 001°32'0 0.2
2017-Nov-16 01:00N 44°07' W 001°32'0 0.0
2017-Nov-16 00:30N 44°07' W 001°32'0 0.3
2017-Nov-16 00:00N 44°07' W 001°32'0 0.2
2017-Nov-15 23:30N 44°07' W 001°32'3 1.9
2017-Nov-15 21:57N 44°08' W 001°36'4 9.9
2017-Nov-15 21:30N 44°07' W 001°42'8 8.3
2017-Nov-15 20:30N 43°59' W 001°42'510.0
2017-Nov-15 20:00N 43°54' W 001°45'5 9.6
2017-Nov-15 19:30N 43°50' W 001°49'5 9.6
2017-Nov-15 19:00N 43°46' W 001°52'5 9.3
2017-Nov-15 18:30N 43°42' W 001°56'0 0.2
2017-Nov-15 18:00N 43°42' W 001°56'4 8.9
2017-Nov-15 17:30N 43°38' W 001°58'5 9.9
2017-Nov-15 17:00N 43°34' W 002°02'5 9.8
2017-Nov-15 16:30N 43°30' W 002°05'5 9.7
2017-Nov-15 16:00N 43°25' W 002°08'510.0
2017-Nov-15 15:30N 43°21' W 002°10'3 5.2
2017-Nov-15 15:00N 43°18' W 002°12'0 0.0
2017-Nov-15 14:27N 43°18' W 002°12'0 0.0
2017-Nov-15 14:00N 43°18' W 002°12'0 0.0
2017-Nov-15 13:30N 43°18' W 002°12'4 9.0
2017-Nov-15 13:00N 43°22' W 002°08'510.5
2017-Nov-15 12:30N 43°26' W 002°04'510.6
2017-Nov-15 12:00N 43°31' W 002°01'510.3
2017-Nov-15 11:30N 43°35' W 001°57'510.2
2017-Nov-15 11:00N 43°40' W 001°54'510.2
2017-Nov-15 10:30N 43°44' W 001°51'510.4
2017-Nov-15 10:00N 43°49' W 001°47'510.3
2017-Nov-15 09:30N 43°54' W 001°44'610.2
2017-Nov-15 08:56N 43°59' W 001°40'410.0
2017-Nov-15 08:29N 44°03' W 001°37'510.0
2017-Nov-15 07:59N 44°07' W 001°34'5 3.3
2017-Nov-15 06:32N 44°11' W 001°30'0 0.3
2017-Nov-15 06:30N 44°11' W 001°30'4 1.1
2017-Nov-15 02:49N 44°15' W 001°30'0 0.4
2017-Nov-15 02:22N 44°15' W 001°30'0 0.4
2017-Nov-15 01:58N 44°15' W 001°29'1 0.4
2017-Nov-15 00:41N 44°16' W 001°29'0 0.4
2017-Nov-15 00:30N 44°16' W 001°29'0 0.5
2017-Nov-14 23:50N 44°16' W 001°29'1 4.2
2017-Nov-14 23:30N 44°16' W 001°31'1 2.6
2017-Nov-14 22:58N 44°17' W 001°30'21 3.0
2017-Nov-14 16:13N 43°58' W 001°39'2 9.9
2017-Nov-14 15:59N 43°56' W 001°41'5 9.8
2017-Nov-14 15:30N 43°52' W 001°44'5 9.9
2017-Nov-14 15:00N 43°47' W 001°47'5 9.8
2017-Nov-14 14:30N 43°43' W 001°50'5 9.8
2017-Nov-14 14:00N 43°39' W 001°54'5 9.6
2017-Nov-14 13:30N 43°35' W 001°57'5 9.6
2017-Nov-14 13:00N 43°31' W 002°01'5 9.4
2017-Nov-14 12:30N 43°27' W 002°04'5 9.3
2017-Nov-14 12:00N 43°23' W 002°08'5 9.3
2017-Nov-14 11:30N 43°19' W 002°11'1 1.8
2017-Nov-14 11:00N 43°18' W 002°12'0 0.1
2017-Nov-14 10:29N 43°18' W 002°12'  
2017-Nov-07 06:33N 43°18' W 002°12'0 5.3
2017-Nov-07 06:29N 43°18' W 002°12'510.3
2017-Nov-07 06:00N 43°20' W 002°05'510.0
2017-Nov-07 05:30N 43°22' W 001°59'4 7.4
2017-Nov-07 05:01N 43°24' W 001°54'1 2.2
2017-Nov-07 04:30N 43°24' W 001°56'3 6.4
2017-Nov-07 04:00N 43°25' W 001°52'2 4.1
2017-Nov-07 03:30N 43°27' W 001°54'1 3.0
2017-Nov-07 03:00N 43°28' W 001°54'0 0.6
2017-Nov-07 02:30N 43°28' W 001°53'0 0.6
2017-Nov-07 02:00N 43°28' W 001°53'0 0.5
2017-Nov-07 01:30N 43°28' W 001°53'0 0.5
2017-Nov-07 01:00N 43°27' W 001°53'0 0.5
2017-Nov-07 00:30N 43°27' W 001°53'0 1.0
2017-Nov-07 00:00N 43°27' W 001°52'4 8.2
2017-Nov-06 23:30N 43°31' W 001°50'4 8.4
2017-Nov-06 23:00N 43°34' W 001°47'4 8.3
2017-Nov-06 22:31N 43°38' W 001°44'4 8.2
2017-Nov-06 22:00N 43°42' W 001°43'4 8.4
2017-Nov-06 21:30N 43°46' W 001°42'4 8.5
2017-Nov-06 21:00N 43°50' W 001°41'2 2.2
2017-Nov-06 20:08N 43°52' W 001°40'  

Dump ship's entire track history